EJU53RD LICJ-LIMC
Flight info
| Callsign | EJU53RD |
|---|---|
| Flight time | 1h 31m |
| Altitude | 32000 |
| Route | GIANO5Q GIANO DCT RONAB DCT RUVIP DCT BETOT DCT POKAV DCT TINTO DCT ELB DCT UPDIN DCT SPEZI DCT IDONA/N0326F180 Y69 MEBUR MEBUR3H |
| Aircraft | A32N/M-V/N |
Departure
| Time | 2026-05-03 21:10 |
|---|---|
| Airport | Falcone–Borsellino Airport (LICJ) |
Arrival
| Time | 2026-05-03 22:41 |
|---|---|
| Airport | Milan Malpensa International Airport (LIMC) |
| Time | Latitude | Longitude | Altitude | Speed | Heading |
|---|---|---|---|---|---|
| 2026-05-03 20:49 | 38.18409 | 13.10692 | 65 ft | 0 kts | 157° |
| 2026-05-03 21:01 | 38.18416 | 13.10689 | 58 ft | 3 kts | 158° |
| 2026-05-03 21:01 | 38.18435 | 13.10680 | 60 ft | 3 kts | 163° |
| 2026-05-03 21:02 | 38.18455 | 13.10673 | 57 ft | 3 kts | 171° |
| 2026-05-03 21:02 | 38.18474 | 13.10671 | 55 ft | 3 kts | 189° |
| 2026-05-03 21:02 | 38.18491 | 13.10678 | 60 ft | 2 kts | 235° |
| 2026-05-03 21:02 | 38.18494 | 13.10683 | 58 ft | 1 kts | 247° |
| 2026-05-03 21:06 | 38.18489 | 13.10669 | 60 ft | 3 kts | 247° |
| 2026-05-03 21:06 | 38.18474 | 13.10624 | 58 ft | 9 kts | 247° |
| 2026-05-03 21:06 | 38.18438 | 13.10533 | 63 ft | 13 kts | 225° |
| 2026-05-03 21:06 | 38.18356 | 13.10485 | 65 ft | 13 kts | 200° |
| 2026-05-03 21:07 | 38.18303 | 13.10396 | 58 ft | 14 kts | 246° |
| 2026-05-03 21:07 | 38.18264 | 13.10276 | 63 ft | 16 kts | 248° |
| 2026-05-03 21:07 | 38.18220 | 13.10142 | 63 ft | 17 kts | 247° |
| 2026-05-03 21:07 | 38.18169 | 13.09997 | 60 ft | 19 kts | 245° |
| 2026-05-03 21:08 | 38.18143 | 13.09842 | 65 ft | 16 kts | 300° |
| 2026-05-03 21:08 | 38.18244 | 13.09781 | 60 ft | 17 kts | 338° |
| 2026-05-03 21:08 | 38.18309 | 13.09722 | 61 ft | 18 kts | 304° |
| 2026-05-03 21:08 | 38.18330 | 13.09668 | 65 ft | 0 kts | 294° |
| 2026-05-03 21:09 | 38.18330 | 13.09666 | 65 ft | 1 kts | 294° |
| 2026-05-03 21:09 | 38.18354 | 13.09568 | 67 ft | 15 kts | 263° |
| 2026-05-03 21:09 | 38.18328 | 13.09526 | 69 ft | 1 kts | 208° |
| 2026-05-03 21:09 | 38.18265 | 13.09488 | 61 ft | 35 kts | 203° |
| 2026-05-03 21:10 | 38.17836 | 13.09248 | 69 ft | 96 kts | 204° |
| 2026-05-03 21:10 | 38.17075 | 13.08818 | 89 ft | 139 kts | 203° |
| 2026-05-03 21:10 | 38.16178 | 13.08319 | 553 ft | 138 kts | 206° |
| 2026-05-03 21:10 | 38.15565 | 13.07425 | 1019 ft | 144 kts | 251° |
| 2026-05-03 21:11 | 38.15441 | 13.06104 | 1407 ft | 158 kts | 271° |
| 2026-05-03 21:11 | 38.15738 | 13.04705 | 1764 ft | 170 kts | 292° |
| 2026-05-03 21:11 | 38.16316 | 13.03310 | 2075 ft | 183 kts | 299° |
| 2026-05-03 21:11 | 38.16949 | 13.01836 | 2395 ft | 196 kts | 297° |
| 2026-05-03 21:12 | 38.17596 | 13.00317 | 2925 ft | 199 kts | 298° |
| 2026-05-03 21:12 | 38.18289 | 12.98790 | 3569 ft | 199 kts | 300° |
| 2026-05-03 21:12 | 38.19044 | 12.97217 | 4042 ft | 218 kts | 301° |
| 2026-05-03 21:12 | 38.19863 | 12.95568 | 4863 ft | 220 kts | 301° |
| 2026-05-03 21:13 | 38.20690 | 12.93926 | 5763 ft | 221 kts | 302° |
| 2026-05-03 21:13 | 38.21527 | 12.92267 | 6596 ft | 225 kts | 302° |
| 2026-05-03 21:13 | 38.22374 | 12.90585 | 7387 ft | 227 kts | 302° |
| 2026-05-03 21:13 | 38.23227 | 12.88892 | 8211 ft | 228 kts | 302° |
| 2026-05-03 21:14 | 38.24087 | 12.87184 | 9046 ft | 229 kts | 303° |
| 2026-05-03 21:14 | 38.24938 | 12.85492 | 9907 ft | 227 kts | 303° |
| 2026-05-03 21:14 | 38.25799 | 12.83784 | 10591 ft | 231 kts | 303° |
| 2026-05-03 21:14 | 38.26668 | 12.82059 | 11295 ft | 232 kts | 303° |
| 2026-05-03 21:15 | 38.27549 | 12.80314 | 11962 ft | 235 kts | 303° |
| 2026-05-03 21:15 | 38.28540 | 12.78660 | 12657 ft | 236 kts | 317° |
| 2026-05-03 21:15 | 38.29909 | 12.77499 | 13309 ft | 239 kts | 336° |
| 2026-05-03 21:15 | 38.31479 | 12.76635 | 13702 ft | 256 kts | 335° |
| 2026-05-03 21:16 | 38.33173 | 12.75690 | 13946 ft | 275 kts | 335° |
| 2026-05-03 21:16 | 38.34986 | 12.74665 | 14155 ft | 296 kts | 335° |
| 2026-05-03 21:16 | 38.36939 | 12.73552 | 14353 ft | 319 kts | 335° |
| 2026-05-03 21:16 | 38.39029 | 12.72358 | 14549 ft | 340 kts | 335° |
| 2026-05-03 21:17 | 38.41241 | 12.71092 | 14906 ft | 354 kts | 335° |
| 2026-05-03 21:17 | 38.42731 | 12.70239 | 15379 ft | 355 kts | 335° |
| 2026-05-03 21:17 | 38.45761 | 12.68504 | 16309 ft | 359 kts | 335° |
| 2026-05-03 21:17 | 38.48051 | 12.67192 | 17033 ft | 361 kts | 334° |
| 2026-05-03 21:18 | 38.50353 | 12.65872 | 17741 ft | 364 kts | 334° |
| 2026-05-03 21:18 | 38.52671 | 12.64541 | 18424 ft | 367 kts | 334° |
| 2026-05-03 21:18 | 38.55011 | 12.63196 | 18998 ft | 370 kts | 334° |
| 2026-05-03 21:18 | 38.57367 | 12.61841 | 19570 ft | 373 kts | 334° |
| 2026-05-03 21:19 | 38.59714 | 12.60490 | 20138 ft | 376 kts | 334° |
| 2026-05-03 21:19 | 38.62110 | 12.59110 | 20709 ft | 379 kts | 334° |
| 2026-05-03 21:19 | 38.64528 | 12.57717 | 21263 ft | 383 kts | 334° |
| 2026-05-03 21:19 | 38.66997 | 12.56293 | 21824 ft | 386 kts | 333° |
| 2026-05-03 21:20 | 38.69432 | 12.54887 | 22277 ft | 392 kts | 333° |
| 2026-05-03 21:20 | 38.71930 | 12.53444 | 22823 ft | 395 kts | 333° |
| 2026-05-03 21:20 | 38.74442 | 12.51992 | 23370 ft | 398 kts | 333° |
| 2026-05-03 21:20 | 38.76979 | 12.50524 | 23872 ft | 402 kts | 333° |
| 2026-05-03 21:21 | 38.79532 | 12.49046 | 24337 ft | 404 kts | 333° |
| 2026-05-03 21:21 | 38.82096 | 12.47560 | 24797 ft | 406 kts | 333° |
| 2026-05-03 21:21 | 38.84678 | 12.46063 | 25246 ft | 408 kts | 333° |
| 2026-05-03 21:21 | 38.87273 | 12.44557 | 25688 ft | 410 kts | 333° |
| 2026-05-03 21:22 | 38.89894 | 12.43082 | 26117 ft | 413 kts | 334° |
| 2026-05-03 21:22 | 38.92550 | 12.41635 | 26556 ft | 415 kts | 334° |
| 2026-05-03 21:22 | 38.95214 | 12.40191 | 26953 ft | 418 kts | 335° |
| 2026-05-03 21:22 | 38.97906 | 12.38725 | 27263 ft | 422 kts | 335° |
| 2026-05-03 21:23 | 39.00616 | 12.37244 | 27694 ft | 424 kts | 334° |
| 2026-05-03 21:23 | 39.03330 | 12.35755 | 28082 ft | 426 kts | 334° |
| 2026-05-03 21:23 | 39.06060 | 12.34252 | 28453 ft | 428 kts | 334° |
| 2026-05-03 21:23 | 39.08802 | 12.32742 | 28815 ft | 430 kts | 334° |
| 2026-05-03 21:24 | 39.11557 | 12.31223 | 29167 ft | 432 kts | 334° |
| 2026-05-03 21:24 | 39.14327 | 12.29694 | 29501 ft | 434 kts | 334° |
| 2026-05-03 21:24 | 39.17109 | 12.28158 | 29883 ft | 435 kts | 334° |
| 2026-05-03 21:24 | 39.19895 | 12.26618 | 30233 ft | 437 kts | 334° |
| 2026-05-03 21:25 | 39.22690 | 12.25071 | 30509 ft | 439 kts | 334° |
| 2026-05-03 21:25 | 39.25464 | 12.23534 | 30802 ft | 440 kts | 334° |
| 2026-05-03 21:25 | 39.28319 | 12.21951 | 31100 ft | 442 kts | 334° |
| 2026-05-03 21:25 | 39.31109 | 12.20404 | 31418 ft | 443 kts | 334° |
| 2026-05-03 21:26 | 39.33938 | 12.18833 | 31795 ft | 442 kts | 334° |
| 2026-05-03 21:26 | 39.36760 | 12.17263 | 31998 ft | 440 kts | 334° |
| 2026-05-03 21:26 | 39.39569 | 12.15699 | 32108 ft | 438 kts | 334° |
| 2026-05-03 21:26 | 39.42362 | 12.14144 | 32175 ft | 436 kts | 334° |
| 2026-05-03 21:27 | 39.47934 | 12.11036 | 32181 ft | 437 kts | 334° |
| 2026-05-03 21:27 | 39.53512 | 12.07920 | 32180 ft | 436 kts | 334° |
| 2026-05-03 21:28 | 39.59085 | 12.04802 | 32181 ft | 436 kts | 334° |
| 2026-05-03 21:28 | 39.64692 | 12.01659 | 32180 ft | 440 kts | 334° |
| 2026-05-03 21:29 | 39.70287 | 11.98519 | 32179 ft | 438 kts | 334° |
| 2026-05-03 21:29 | 39.75889 | 11.95369 | 32176 ft | 438 kts | 334° |
| 2026-05-03 21:30 | 39.81484 | 11.92217 | 32179 ft | 438 kts | 334° |
| 2026-05-03 21:30 | 39.87045 | 11.89078 | 32185 ft | 439 kts | 334° |
| 2026-05-03 21:31 | 39.92741 | 11.86142 | 32176 ft | 441 kts | 337° |
| 2026-05-03 21:31 | 39.98485 | 11.83336 | 32176 ft | 441 kts | 336° |
| 2026-05-03 21:32 | 40.04211 | 11.80488 | 32176 ft | 441 kts | 336° |
| 2026-05-03 21:32 | 40.09933 | 11.77618 | 32174 ft | 441 kts | 336° |
| 2026-05-03 21:33 | 40.15656 | 11.74743 | 32171 ft | 441 kts | 336° |
| 2026-05-03 21:33 | 40.21381 | 11.71862 | 32170 ft | 441 kts | 336° |
| 2026-05-03 21:34 | 40.27101 | 11.68978 | 32171 ft | 441 kts | 336° |
| 2026-05-03 21:34 | 40.32832 | 11.66082 | 32180 ft | 444 kts | 336° |
| 2026-05-03 21:35 | 40.38602 | 11.63164 | 32170 ft | 444 kts | 336° |
| 2026-05-03 21:35 | 40.44361 | 11.60241 | 32167 ft | 444 kts | 336° |
| 2026-05-03 21:36 | 40.50122 | 11.57310 | 32168 ft | 444 kts | 336° |
| 2026-05-03 21:36 | 40.55876 | 11.54377 | 32170 ft | 444 kts | 336° |
| 2026-05-03 21:37 | 40.61661 | 11.51423 | 32171 ft | 445 kts | 336° |
| 2026-05-03 21:37 | 40.67436 | 11.48469 | 32172 ft | 445 kts | 336° |
| 2026-05-03 21:38 | 40.73209 | 11.45510 | 32168 ft | 445 kts | 336° |
| 2026-05-03 21:38 | 40.78945 | 11.42566 | 32175 ft | 444 kts | 336° |
| 2026-05-03 21:39 | 40.84682 | 11.39617 | 32167 ft | 442 kts | 335° |
| 2026-05-03 21:39 | 40.90424 | 11.36656 | 32167 ft | 443 kts | 335° |
| 2026-05-03 21:40 | 40.96164 | 11.33693 | 32171 ft | 443 kts | 335° |
| 2026-05-03 21:40 | 41.01901 | 11.30726 | 32176 ft | 443 kts | 335° |
| 2026-05-03 21:41 | 41.07671 | 11.27735 | 32168 ft | 446 kts | 336° |
| 2026-05-03 21:41 | 41.13439 | 11.24743 | 32162 ft | 445 kts | 336° |
| 2026-05-03 21:42 | 41.19217 | 11.21738 | 32168 ft | 445 kts | 336° |
| 2026-05-03 21:42 | 41.24984 | 11.18733 | 32163 ft | 447 kts | 336° |
| 2026-05-03 21:43 | 41.30771 | 11.15712 | 32157 ft | 447 kts | 336° |
| 2026-05-03 21:43 | 41.36554 | 11.12687 | 32165 ft | 447 kts | 335° |
| 2026-05-03 21:44 | 41.42335 | 11.09657 | 32163 ft | 447 kts | 335° |
| 2026-05-03 21:44 | 41.48074 | 11.06645 | 32159 ft | 445 kts | 335° |
| 2026-05-03 21:45 | 41.53841 | 11.03611 | 32169 ft | 446 kts | 335° |
| 2026-05-03 21:45 | 41.59611 | 11.00572 | 32160 ft | 446 kts | 335° |
| 2026-05-03 21:46 | 41.65378 | 10.97529 | 32161 ft | 446 kts | 335° |
| 2026-05-03 21:46 | 41.71131 | 10.94487 | 32164 ft | 444 kts | 335° |
| 2026-05-03 21:47 | 41.76878 | 10.91441 | 32155 ft | 444 kts | 335° |
| 2026-05-03 21:47 | 41.82624 | 10.88390 | 32159 ft | 444 kts | 335° |
| 2026-05-03 21:48 | 41.88366 | 10.85336 | 32164 ft | 444 kts | 335° |
| 2026-05-03 21:48 | 41.94105 | 10.82278 | 32159 ft | 443 kts | 335° |
| 2026-05-03 21:49 | 41.99843 | 10.79214 | 32160 ft | 443 kts | 335° |
| 2026-05-03 21:49 | 42.05577 | 10.76146 | 32162 ft | 443 kts | 335° |
| 2026-05-03 21:50 | 42.11308 | 10.73073 | 32177 ft | 444 kts | 335° |
| 2026-05-03 21:50 | 42.17036 | 10.69998 | 32160 ft | 443 kts | 335° |
| 2026-05-03 21:51 | 42.22719 | 10.66939 | 32162 ft | 443 kts | 335° |
| 2026-05-03 21:51 | 42.28440 | 10.63854 | 32163 ft | 443 kts | 335° |
| 2026-05-03 21:52 | 42.34148 | 10.60770 | 32162 ft | 443 kts | 335° |
| 2026-05-03 21:52 | 42.39908 | 10.57652 | 32162 ft | 443 kts | 335° |
| 2026-05-03 21:53 | 42.45623 | 10.54551 | 32159 ft | 447 kts | 335° |
| 2026-05-03 21:53 | 42.51391 | 10.51417 | 32159 ft | 446 kts | 335° |
| 2026-05-03 21:54 | 42.57147 | 10.48283 | 32157 ft | 446 kts | 335° |
| 2026-05-03 21:54 | 42.62903 | 10.45143 | 32159 ft | 446 kts | 334° |
| 2026-05-03 21:55 | 42.68657 | 10.41997 | 32157 ft | 446 kts | 334° |
| 2026-05-03 21:55 | 42.74337 | 10.38632 | 32156 ft | 443 kts | 328° |
| 2026-05-03 21:56 | 42.78799 | 10.35249 | 32157 ft | 441 kts | 327° |
| 2026-05-03 21:56 | 42.84177 | 10.31214 | 32157 ft | 441 kts | 327° |
| 2026-05-03 21:57 | 42.89592 | 10.27136 | 32149 ft | 442 kts | 327° |
| 2026-05-03 21:57 | 42.94930 | 10.23101 | 32149 ft | 442 kts | 327° |
| 2026-05-03 21:58 | 43.00342 | 10.18999 | 32150 ft | 444 kts | 327° |
| 2026-05-03 21:58 | 43.05723 | 10.14912 | 32149 ft | 445 kts | 327° |
| 2026-05-03 21:59 | 43.11136 | 10.10795 | 32149 ft | 445 kts | 327° |
| 2026-05-03 21:59 | 43.16554 | 10.06664 | 32150 ft | 445 kts | 327° |
| 2026-05-03 22:00 | 43.21961 | 10.02533 | 32152 ft | 445 kts | 327° |
| 2026-05-03 22:00 | 43.27367 | 9.98394 | 32151 ft | 445 kts | 327° |
| 2026-05-03 22:01 | 43.32734 | 9.94278 | 32146 ft | 445 kts | 327° |
| 2026-05-03 22:01 | 43.38172 | 9.90098 | 32146 ft | 445 kts | 327° |
| 2026-05-03 22:02 | 43.43569 | 9.85937 | 32146 ft | 444 kts | 327° |
| 2026-05-03 22:02 | 43.48968 | 9.81764 | 32144 ft | 447 kts | 327° |
| 2026-05-03 22:03 | 43.54391 | 9.77563 | 32143 ft | 447 kts | 327° |
| 2026-05-03 22:03 | 43.59810 | 9.73359 | 32146 ft | 447 kts | 327° |
| 2026-05-03 22:04 | 43.65181 | 9.69182 | 32145 ft | 445 kts | 327° |
| 2026-05-03 22:04 | 43.70583 | 9.64972 | 32145 ft | 446 kts | 327° |
| 2026-05-03 22:05 | 43.75981 | 9.60757 | 32151 ft | 446 kts | 327° |
| 2026-05-03 22:05 | 43.81384 | 9.56531 | 32151 ft | 446 kts | 327° |
| 2026-05-03 22:06 | 43.86748 | 9.52330 | 32146 ft | 444 kts | 327° |
| 2026-05-03 22:06 | 43.92157 | 9.48084 | 32151 ft | 445 kts | 327° |
| 2026-05-03 22:07 | 43.97629 | 9.44022 | 32152 ft | 450 kts | 333° |
| 2026-05-03 22:07 | 44.03631 | 9.41412 | 32166 ft | 455 kts | 343° |
| 2026-05-03 22:08 | 44.09787 | 9.39377 | 32151 ft | 455 kts | 342° |
| 2026-05-03 22:08 | 44.15938 | 9.37321 | 32134 ft | 453 kts | 342° |
| 2026-05-03 22:09 | 44.18995 | 9.36303 | 31800 ft | 451 kts | 342° |
| 2026-05-03 22:09 | 44.22048 | 9.35287 | 31153 ft | 451 kts | 343° |
| 2026-05-03 22:09 | 44.25106 | 9.34267 | 30377 ft | 453 kts | 343° |
| 2026-05-03 22:10 | 44.31200 | 9.32236 | 29084 ft | 445 kts | 343° |
| 2026-05-03 22:10 | 44.34192 | 9.31239 | 28485 ft | 440 kts | 343° |
| 2026-05-03 22:10 | 44.37160 | 9.30247 | 27855 ft | 436 kts | 343° |
| 2026-05-03 22:10 | 44.40102 | 9.29263 | 27258 ft | 432 kts | 343° |
| 2026-05-03 22:11 | 44.43014 | 9.28289 | 26684 ft | 428 kts | 343° |
| 2026-05-03 22:11 | 44.45901 | 9.27320 | 26124 ft | 424 kts | 343° |
| 2026-05-03 22:11 | 44.48721 | 9.26373 | 25559 ft | 421 kts | 343° |
| 2026-05-03 22:11 | 44.51556 | 9.25419 | 25008 ft | 417 kts | 343° |
| 2026-05-03 22:12 | 44.54403 | 9.24460 | 24478 ft | 413 kts | 343° |
| 2026-05-03 22:12 | 44.57154 | 9.23532 | 23942 ft | 410 kts | 343° |
| 2026-05-03 22:12 | 44.59918 | 9.22600 | 23368 ft | 407 kts | 344° |
| 2026-05-03 22:12 | 44.62662 | 9.21674 | 22753 ft | 404 kts | 343° |
| 2026-05-03 22:13 | 44.65384 | 9.20756 | 22162 ft | 400 kts | 343° |
| 2026-05-03 22:13 | 44.68045 | 9.19858 | 21980 ft | 387 kts | 343° |
| 2026-05-03 22:13 | 44.70617 | 9.18993 | 21836 ft | 373 kts | 343° |
| 2026-05-03 22:13 | 44.73097 | 9.18151 | 21705 ft | 360 kts | 341° |
| 2026-05-03 22:14 | 44.75318 | 9.16803 | 21547 ft | 341 kts | 322° |
| 2026-05-03 22:14 | 44.77021 | 9.14591 | 21136 ft | 330 kts | 303° |
| 2026-05-03 22:14 | 44.78221 | 9.11851 | 20565 ft | 331 kts | 297° |
| 2026-05-03 22:14 | 44.79379 | 9.09044 | 20068 ft | 331 kts | 297° |
| 2026-05-03 22:15 | 44.80532 | 9.06254 | 19676 ft | 328 kts | 297° |
| 2026-05-03 22:15 | 44.81681 | 9.03483 | 19268 ft | 327 kts | 297° |
| 2026-05-03 22:15 | 44.82827 | 9.00725 | 18848 ft | 325 kts | 297° |
| 2026-05-03 22:15 | 44.83968 | 8.97978 | 18440 ft | 324 kts | 297° |
| 2026-05-03 22:16 | 44.85102 | 8.95248 | 18019 ft | 322 kts | 297° |
| 2026-05-03 22:16 | 44.86227 | 8.92535 | 17563 ft | 320 kts | 297° |
| 2026-05-03 22:16 | 44.87350 | 8.89826 | 17108 ft | 319 kts | 297° |
| 2026-05-03 22:16 | 44.88469 | 8.87125 | 16681 ft | 318 kts | 297° |
| 2026-05-03 22:17 | 44.89579 | 8.84441 | 16228 ft | 317 kts | 296° |
| 2026-05-03 22:17 | 44.90688 | 8.81759 | 15790 ft | 316 kts | 296° |
| 2026-05-03 22:17 | 44.91790 | 8.79091 | 15386 ft | 315 kts | 296° |
| 2026-05-03 22:17 | 44.92886 | 8.76437 | 15016 ft | 312 kts | 296° |
| 2026-05-03 22:18 | 44.93975 | 8.73797 | 14607 ft | 311 kts | 296° |
| 2026-05-03 22:18 | 44.95059 | 8.71165 | 14202 ft | 310 kts | 296° |
| 2026-05-03 22:18 | 44.96138 | 8.68543 | 13796 ft | 308 kts | 296° |
| 2026-05-03 22:18 | 44.97210 | 8.65932 | 13358 ft | 307 kts | 296° |
| 2026-05-03 22:19 | 44.98277 | 8.63331 | 12924 ft | 305 kts | 296° |
| 2026-05-03 22:19 | 44.99380 | 8.60779 | 12465 ft | 307 kts | 304° |
| 2026-05-03 22:19 | 45.01021 | 8.58824 | 12002 ft | 312 kts | 330° |
| 2026-05-03 22:19 | 45.03084 | 8.57885 | 11627 ft | 313 kts | 346° |
| 2026-05-03 22:20 | 45.05217 | 8.57312 | 11241 ft | 311 kts | 348° |
| 2026-05-03 22:20 | 45.07340 | 8.56796 | 10885 ft | 308 kts | 348° |
| 2026-05-03 22:20 | 45.09442 | 8.56272 | 10508 ft | 306 kts | 348° |
| 2026-05-03 22:20 | 45.11525 | 8.55725 | 10137 ft | 304 kts | 348° |
| 2026-05-03 22:21 | 45.13585 | 8.55166 | 9745 ft | 301 kts | 348° |
| 2026-05-03 22:21 | 45.15638 | 8.54599 | 9349 ft | 299 kts | 348° |
| 2026-05-03 22:21 | 45.17656 | 8.54038 | 9238 ft | 297 kts | 348° |
| 2026-05-03 22:21 | 45.19706 | 8.53466 | 9145 ft | 301 kts | 348° |
| 2026-05-03 22:22 | 45.21424 | 8.52987 | 9105 ft | 298 kts | 348° |
| 2026-05-03 22:22 | 45.23459 | 8.52420 | 9109 ft | 299 kts | 348° |
| 2026-05-03 22:22 | 45.25473 | 8.51861 | 9107 ft | 299 kts | 348° |
| 2026-05-03 22:22 | 45.27518 | 8.51293 | 9111 ft | 300 kts | 348° |
| 2026-05-03 22:23 | 45.29563 | 8.50769 | 9098 ft | 298 kts | 355° |
| 2026-05-03 22:23 | 45.31599 | 8.51139 | 9102 ft | 298 kts | 21° |
| 2026-05-03 22:23 | 45.33351 | 8.52722 | 9110 ft | 296 kts | 48° |
| 2026-05-03 22:23 | 45.34427 | 8.55163 | 9107 ft | 293 kts | 75° |
| 2026-05-03 22:24 | 45.34753 | 8.57998 | 9106 ft | 290 kts | 90° |
| 2026-05-03 22:24 | 45.34814 | 8.60855 | 9099 ft | 288 kts | 94° |
| 2026-05-03 22:24 | 45.34421 | 8.63596 | 9102 ft | 282 kts | 117° |
| 2026-05-03 22:24 | 45.33280 | 8.65805 | 9102 ft | 277 kts | 143° |
| 2026-05-03 22:25 | 45.31598 | 8.67024 | 9106 ft | 273 kts | 168° |
| 2026-05-03 22:25 | 45.29737 | 8.67567 | 9101 ft | 273 kts | 170° |
| 2026-05-03 22:25 | 45.27855 | 8.67774 | 9110 ft | 271 kts | 189° |
| 2026-05-03 22:25 | 45.26051 | 8.66987 | 9088 ft | 273 kts | 195° |
| 2026-05-03 22:26 | 45.24173 | 8.66847 | 9106 ft | 273 kts | 170° |
| 2026-05-03 22:26 | 45.22304 | 8.67448 | 9103 ft | 276 kts | 168° |
| 2026-05-03 22:26 | 45.20412 | 8.67639 | 9107 ft | 274 kts | 189° |
| 2026-05-03 22:26 | 45.18647 | 8.66668 | 9107 ft | 276 kts | 212° |
| 2026-05-03 22:27 | 45.16933 | 8.65496 | 9110 ft | 274 kts | 192° |
| 2026-05-03 22:27 | 45.15044 | 8.65489 | 9104 ft | 275 kts | 166° |
| 2026-05-03 22:27 | 45.13342 | 8.66704 | 9103 ft | 278 kts | 141° |
| 2026-05-03 22:27 | 45.12086 | 8.68805 | 9097 ft | 281 kts | 127° |
| 2026-05-03 22:28 | 45.10971 | 8.71077 | 9094 ft | 280 kts | 133° |
| 2026-05-03 22:28 | 45.09460 | 8.72741 | 9103 ft | 276 kts | 157° |
| 2026-05-03 22:28 | 45.07658 | 8.73516 | 9090 ft | 264 kts | 168° |
| 2026-05-03 22:28 | 45.05918 | 8.74039 | 9098 ft | 247 kts | 171° |
| 2026-05-03 22:29 | 45.04333 | 8.74707 | 9104 ft | 231 kts | 149° |
| 2026-05-03 22:29 | 45.03219 | 8.76302 | 9110 ft | 236 kts | 121° |
| 2026-05-03 22:29 | 45.02805 | 8.78557 | 9105 ft | 243 kts | 90° |
| 2026-05-03 22:29 | 45.03071 | 8.80929 | 9091 ft | 245 kts | 81° |
| 2026-05-03 22:30 | 45.03413 | 8.83272 | 8953 ft | 242 kts | 81° |
| 2026-05-03 22:30 | 45.03799 | 8.85607 | 8531 ft | 246 kts | 70° |
| 2026-05-03 22:30 | 45.04788 | 8.87554 | 8196 ft | 246 kts | 38° |
| 2026-05-03 22:30 | 45.06328 | 8.88536 | 7816 ft | 245 kts | 7° |
| 2026-05-03 22:31 | 45.08016 | 8.88394 | 7447 ft | 243 kts | 347° |
| 2026-05-03 22:31 | 45.09658 | 8.87812 | 6885 ft | 246 kts | 343° |
| 2026-05-03 22:31 | 45.11305 | 8.87173 | 6442 ft | 243 kts | 344° |
| 2026-05-03 22:31 | 45.12937 | 8.86600 | 5980 ft | 241 kts | 346° |
| 2026-05-03 22:32 | 45.14568 | 8.86090 | 5490 ft | 241 kts | 348° |
| 2026-05-03 22:32 | 45.16209 | 8.85620 | 5040 ft | 239 kts | 348° |
| 2026-05-03 22:32 | 45.17832 | 8.85177 | 4608 ft | 237 kts | 349° |
| 2026-05-03 22:32 | 45.19432 | 8.84747 | 4306 ft | 230 kts | 349° |
| 2026-05-03 22:33 | 45.21039 | 8.84315 | 4216 ft | 239 kts | 348° |
| 2026-05-03 22:33 | 45.22666 | 8.83877 | 4116 ft | 237 kts | 348° |
| 2026-05-03 22:33 | 45.24287 | 8.83486 | 4095 ft | 235 kts | 356° |
| 2026-05-03 22:33 | 45.25904 | 8.83232 | 4101 ft | 233 kts | 350° |
| 2026-05-03 22:34 | 45.27497 | 8.82762 | 4103 ft | 234 kts | 347° |
| 2026-05-03 22:34 | 45.29098 | 8.82343 | 4102 ft | 234 kts | 354° |
| 2026-05-03 22:34 | 45.30708 | 8.82117 | 4099 ft | 227 kts | 353° |
| 2026-05-03 22:34 | 45.32216 | 8.81812 | 4098 ft | 212 kts | 351° |
| 2026-05-03 22:35 | 45.33684 | 8.81443 | 4101 ft | 216 kts | 349° |
| 2026-05-03 22:35 | 45.35159 | 8.81042 | 4103 ft | 215 kts | 349° |
| 2026-05-03 22:35 | 45.36627 | 8.80638 | 4103 ft | 215 kts | 349° |
| 2026-05-03 22:35 | 45.38092 | 8.80236 | 4104 ft | 215 kts | 349° |
| 2026-05-03 22:36 | 45.39563 | 8.79832 | 4103 ft | 215 kts | 349° |
| 2026-05-03 22:36 | 45.41034 | 8.79427 | 4103 ft | 215 kts | 349° |
| 2026-05-03 22:36 | 45.42498 | 8.79025 | 4103 ft | 213 kts | 349° |
| 2026-05-03 22:36 | 45.43889 | 8.78641 | 4114 ft | 194 kts | 349° |
| 2026-05-03 22:37 | 45.45175 | 8.78287 | 3965 ft | 184 kts | 349° |
| 2026-05-03 22:37 | 45.46401 | 8.77949 | 3750 ft | 174 kts | 349° |
| 2026-05-03 22:37 | 45.47551 | 8.77632 | 3519 ft | 163 kts | 349° |
| 2026-05-03 22:37 | 45.48632 | 8.77334 | 3303 ft | 154 kts | 348° |
| 2026-05-03 22:38 | 45.49660 | 8.77051 | 3108 ft | 147 kts | 348° |
| 2026-05-03 22:38 | 45.50320 | 8.76869 | 2969 ft | 146 kts | 348° |
| 2026-05-03 22:38 | 45.51322 | 8.76592 | 2783 ft | 146 kts | 348° |
| 2026-05-03 22:38 | 45.52320 | 8.76316 | 2591 ft | 147 kts | 347° |
| 2026-05-03 22:39 | 45.53325 | 8.76038 | 2395 ft | 147 kts | 347° |
| 2026-05-03 22:39 | 45.54323 | 8.75762 | 2193 ft | 145 kts | 347° |
| 2026-05-03 22:39 | 45.55318 | 8.75487 | 2011 ft | 146 kts | 346° |
| 2026-05-03 22:39 | 45.56310 | 8.75212 | 1813 ft | 145 kts | 346° |
| 2026-05-03 22:40 | 45.57294 | 8.74941 | 1613 ft | 142 kts | 347° |
| 2026-05-03 22:40 | 45.58253 | 8.74674 | 1431 ft | 141 kts | 347° |
| 2026-05-03 22:40 | 45.59204 | 8.74412 | 1233 ft | 137 kts | 347° |
| 2026-05-03 22:40 | 45.60139 | 8.74152 | 1050 ft | 136 kts | 348° |
| 2026-05-03 22:41 | 45.61062 | 8.73902 | 849 ft | 134 kts | 348° |
| 2026-05-03 22:41 | 45.61973 | 8.73654 | 717 ft | 132 kts | 348° |
| 2026-05-03 22:41 | 45.62704 | 8.73441 | 729 ft | 79 kts | 349° |
| 2026-05-03 22:41 | 45.63062 | 8.73311 | 732 ft | 37 kts | 333° |
| 2026-05-03 22:42 | 45.63248 | 8.73090 | 739 ft | 34 kts | 305° |
| 2026-05-03 22:42 | 45.63297 | 8.72992 | 740 ft | 0 kts | 305° |
| 2026-05-03 22:43 | 45.63297 | 8.72991 | 740 ft | 1 kts | 305° |
| 2026-05-03 22:43 | 45.63298 | 8.72989 | 740 ft | 0 kts | 305° |
| 2026-05-03 22:45 | 45.63301 | 8.72984 | 741 ft | 1 kts | 305° |
| 2026-05-03 22:45 | 45.63358 | 8.72868 | 743 ft | 23 kts | 305° |
| 2026-05-03 22:45 | 45.63379 | 8.72674 | 743 ft | 14 kts | 235° |
| 2026-05-03 22:45 | 45.63297 | 8.72579 | 743 ft | 17 kts | 211° |
| 2026-05-03 22:46 | 45.63188 | 8.72476 | 744 ft | 21 kts | 214° |
| 2026-05-03 22:46 | 45.63090 | 8.72371 | 744 ft | 18 kts | 224° |
| 2026-05-03 22:46 | 45.63029 | 8.72210 | 741 ft | 16 kts | 254° |
| 2026-05-03 22:46 | 45.63005 | 8.72039 | 742 ft | 19 kts | 258° |
| 2026-05-03 22:47 | 45.62988 | 8.71885 | 741 ft | 17 kts | 261° |
| 2026-05-03 22:47 | 45.62939 | 8.71750 | 741 ft | 10 kts | 191° |
| 2026-05-03 22:47 | 45.62866 | 8.71774 | 739 ft | 13 kts | 167° |
| 2026-05-03 22:47 | 45.62827 | 8.71718 | 739 ft | 9 kts | 260° |
| 2026-05-03 22:48 | 45.62812 | 8.71655 | 737 ft | 0 kts | 255° |
| 2026-05-03 22:48 | 45.62812 | 8.71653 | 737 ft | 0 kts | 255° |